Time;durP1;ratioP1;P1;durP2;ratioP2;P2;SDS_P1;SDS_P2;PMS_P1;PMS_P2;Temp;Humidity;BMP_temperature;BMP_pressure;BME280_temperature;BME280_humidity;BME280_pressure;Samples;Min_cycle;Max_cycle;Signal;HPM_P1;HPM_P2
2023/08/03 00:00:35;;;;;;;5.32;2.03;;;;;;;23.94;74.15;97224.25;4994651;28;102741;-62
2023/08/03 00:03:03;;;;;;;4.40;1.67;;;;;;;23.69;74.55;97218.19;4992040;28;103827;-62
2023/08/03 00:05:32;;;;;;;3.58;1.60;;;;;;;23.67;72.81;97221.94;4985430;28;105696;-62
2023/08/03 00:08:00;;;;;;;4.87;1.50;;;;;;;23.67;71.50;97232.72;4990907;28;103335;-62
2023/08/03 00:10:32;;;;;;;5.80;1.75;;;;;;;23.46;71.60;97233.22;4992648;28;102737;-62
2023/08/03 00:13:02;;;;;;;4.55;1.67;;;;;;;23.44;71.64;97231.78;5007195;27;103936;-62
2023/08/03 00:15:31;;;;;;;6.28;1.58;;;;;;;23.13;71.41;97240.81;4993299;28;103276;-62
2023/08/03 00:18:01;;;;;;;4.20;1.67;;;;;;;23.61;70.30;97235.50;4994199;28;103323;-62
2023/08/03 00:20:29;;;;;;;6.68;1.45;;;;;;;23.50;70.81;97239.78;4991544;28;102725;-62
2023/08/03 00:22:57;;;;;;;5.27;2.00;;;;;;;23.54;70.36;97230.22;4994717;28;104104;-62
2023/08/03 00:25:26;;;;;;;5.55;1.85;;;;;;;23.48;70.17;97233.81;4995090;28;104368;-62
2023/08/03 00:27:54;;;;;;;6.55;1.80;;;;;;;23.27;70.36;97223.47;4989431;28;103169;-63
2023/08/03 00:30:25;;;;;;;6.82;1.92;;;;;;;22.91;71.03;97226.16;4993289;28;102732;-62
2023/08/03 00:32:53;;;;;;;4.73;1.80;;;;;;;23.40;70.14;97222.53;4991199;28;102915;-62
2023/08/03 00:35:23;;;;;;;4.40;1.43;;;;;;;23.34;69.19;97223.38;5005431;27;105131;-62
2023/08/03 00:37:53;;;;;;;5.43;2.05;;;;;;;23.40;68.99;97217.13;5011665;27;104365;-62
2023/08/03 00:40:22;;;;;;;4.82;1.88;;;;;;;22.89;70.46;97220.19;4994697;28;102819;-62
2023/08/03 00:42:50;;;;;;;4.68;1.73;;;;;;;23.29;69.08;97226.78;4986622;28;103285;-62
2023/08/03 00:45:19;;;;;;;6.60;2.10;;;;;;;23.20;69.30;97233.50;4990145;28;104086;-62
2023/08/03 00:47:47;;;;;;;7.20;1.83;;;;;;;23.27;70.08;97234.25;5006730;27;103255;-62
2023/08/03 00:50:16;;;;;;;5.55;1.85;;;;;;;23.12;70.64;97230.28;4987656;28;102795;-62
2023/08/03 00:52:46;;;;;;;4.53;1.77;;;;;;;23.07;70.82;97222.91;5004888;27;102867;-62
2023/08/03 00:55:14;;;;;;;6.93;2.20;;;;;;;23.07;70.56;97222.91;4990008;28;103314;-62
2023/08/03 00:57:42;;;;;;;6.03;2.15;;;;;;;23.14;70.38;97223.63;4991026;28;103280;-63
2023/08/03 01:00:12;;;;;;;6.60;1.83;;;;;;;23.33;70.12;97210.94;4989749;28;103077;-62
2023/08/03 01:02:40;;;;;;;4.70;1.90;;;;;;;23.03;71.18;97221.69;4992078;28;104259;-62
2023/08/03 01:05:09;;;;;;;5.15;1.77;;;;;;;22.98;71.41;97211.59;4993023;28;103801;-62
2023/08/03 01:07:37;;;;;;;4.22;1.70;;;;;;;23.17;70.50;97217.78;4987057;28;104152;-62
2023/08/03 01:10:08;;;;;;;5.13;1.90;;;;;;;22.60;72.73;97221.69;4992701;28;102703;-62
2023/08/03 01:12:37;;;;;;;6.35;2.05;;;;;;;22.90;71.54;97224.53;4995742;27;104067;-63
2023/08/03 01:15:07;;;;;;;5.22;1.60;;;;;;;22.70;72.30;97222.06;4993895;28;103422;-63
2023/08/03 01:17:35;;;;;;;3.53;1.80;;;;;;;22.89;71.91;97217.50;4991501;28;104168;-63
2023/08/03 01:20:05;;;;;;;5.40;1.80;;;;;;;22.56;73.22;97208.91;4984087;28;103028;-63
2023/08/03 01:22:41;;;;;;;4.95;1.83;;;;;;;22.54;73.39;97218.00;4993208;28;103112;-63
2023/08/03 01:25:10;;;;;;;6.30;1.95;;;;;;;22.44;73.97;97220.41;4992352;28;103539;-63
2023/08/03 01:27:38;;;;;;;5.00;1.65;;;;;;;22.75;73.09;97207.91;4996526;28;104404;-63
2023/08/03 01:30:10;;;;;;;6.72;2.13;;;;;;;22.24;74.64;97210.84;4995235;28;102614;-63
2023/08/03 01:32:38;;;;;;;5.18;1.92;;;;;;;22.69;73.67;97209.63;4992415;28;103693;-63
2023/08/03 01:35:08;;;;;;;6.43;2.08;;;;;;;22.34;74.17;97203.13;5007663;27;104066;-63
2023/08/03 01:37:38;;;;;;;5.53;2.00;;;;;;;22.24;74.57;97208.97;4990676;28;103325;-63
2023/08/03 01:40:10;;;;;;;3.97;1.90;;;;;;;22.39;74.32;97198.72;4992937;28;102736;-63
2023/08/03 01:42:39;;;;;;;5.00;2.00;;;;;;;22.84;73.02;97207.41;4987553;28;102976;-63
2023/08/03 01:45:08;;;;;;;6.07;1.90;;;;;;;22.38;73.82;97202.44;4993917;28;103054;-63
2023/08/03 01:47:37;;;;;;;6.53;1.83;;;;;;;22.53;73.19;97213.69;4993829;28;103021;-63
2023/08/03 01:50:06;;;;;;;6.43;2.00;;;;;;;22.72;72.72;97197.59;5008659;27;102888;-63
2023/08/03 01:52:35;;;;;;;5.65;1.98;;;;;;;22.93;71.69;97206.03;5010898;27;102880;-63
2023/08/03 01:55:06;;;;;;;5.53;1.88;;;;;;;22.69;71.87;97214.19;4994323;28;103933;-63
2023/08/03 01:57:34;;;;;;;5.75;1.98;;;;;;;22.79;71.71;97214.50;4999439;28;103281;-63
2023/08/03 02:00:03;;;;;;;7.75;2.30;;;;;;;22.48;71.54;97226.97;4991973;28;102734;-63
2023/08/03 02:02:40;;;;;;;5.95;1.70;;;;;;;22.59;70.84;97224.63;4997565;28;102818;-63
2023/08/03 02:05:10;;;;;;;4.25;1.80;;;;;;;23.06;69.22;97215.84;4998156;28;105937;-63
2023/08/03 02:07:44;;;;;;;4.13;1.73;;;;;;;22.69;70.22;97222.25;4996363;28;103272;-63
2023/08/03 02:10:15;;;;;;;6.07;1.77;;;;;;;22.45;70.24;97235.50;4996563;28;102862;-63
2023/08/03 02:12:43;;;;;;;5.25;1.80;;;;;;;22.53;69.56;97235.22;4998072;28;102724;-63
2023/08/03 02:15:12;;;;;;;3.53;1.60;;;;;;;22.54;69.05;97241.41;5011453;27;105292;-63
2023/08/03 02:17:41;;;;;;;5.00;1.70;;;;;;;22.44;69.41;97244.63;4996536;28;103182;-63
2023/08/03 02:20:11;;;;;;;6.00;1.40;;;;;;;22.44;69.07;97243.78;4994499;28;102737;-63
2023/08/03 02:22:40;;;;;;;5.03;1.70;;;;;;;22.37;69.59;97237.66;5008487;27;102914;-63
2023/08/03 02:25:09;;;;;;;5.68;1.70;;;;;;;22.16;69.66;97251.47;5011656;27;103308;-63
2023/08/03 02:27:40;;;;;;;4.95;1.50;;;;;;;22.05;69.74;97242.22;5013715;27;103292;-63
2023/08/03 02:30:10;;;;;;;6.57;1.60;;;;;;;22.06;69.82;97253.81;4997543;28;102646;-63
2023/08/03 02:32:41;;;;;;;4.55;1.42;;;;;;;22.47;67.87;97248.72;5009465;27;102745;-63
2023/08/03 02:35:11;;;;;;;5.43;1.70;;;;;;;22.24;68.74;97249.31;4994009;28;103992;-63
2023/08/03 02:37:40;;;;;;;6.00;1.73;;;;;;;22.37;68.48;97257.28;5014180;27;105321;-63
2023/08/03 02:40:15;;;;;;;5.15;1.58;;;;;;;22.50;68.32;97270.63;5012072;27;102899;-63
2023/08/03 02:42:47;;;;;;;4.43;1.35;;;;;;;22.66;67.90;97273.84;5011471;27;103979;-63
2023/08/03 02:45:16;;;;;;;5.70;1.52;;;;;;;22.48;68.25;97266.53;5009390;27;103945;-63
2023/08/03 02:47:45;;;;;;;4.70;1.50;;;;;;;21.95;70.00;97250.75;4994815;28;105167;-62
2023/08/03 02:50:18;;;;;;;5.72;1.63;;;;;;;21.73;70.94;97251.28;4996456;28;103011;-63
2023/08/03 02:52:49;;;;;;;5.43;1.67;;;;;;;21.81;70.33;97259.13;4996141;28;103121;-63
2023/08/03 02:55:20;;;;;;;7.00;1.95;;;;;;;22.12;69.71;97261.03;5009767;27;104126;-63
2023/08/03 02:57:50;;;;;;;5.10;1.73;;;;;;;21.72;71.05;97261.25;5011735;27;103402;-63
2023/08/03 03:00:20;;;;;;;5.57;1.60;;;;;;;21.41;72.28;97254.97;4991610;28;103050;-63
2023/08/03 03:02:49;;;;;;;5.03;1.58;;;;;;;21.66;71.53;97250.50;5007717;27;103038;-63
2023/08/03 03:05:21;;;;;;;5.23;1.70;;;;;;;22.27;69.39;97248.06;5007125;27;102983;-63
2023/08/03 03:07:50;;;;;;;6.68;1.75;;;;;;;22.32;69.13;97257.13;4997080;28;103196;-63
2023/08/03 03:10:19;;;;;;;4.22;1.40;;;;;;;22.27;69.72;97253.44;5009302;27;103354;-63
2023/08/03 03:12:48;;;;;;;4.60;1.52;;;;;;;22.16;69.48;97257.66;4994787;28;102980;-63
2023/08/03 03:15:18;;;;;;;5.35;1.67;;;;;;;22.75;67.79;97267.13;4992420;28;105083;-63
2023/08/03 03:17:47;;;;;;;4.70;1.33;;;;;;;22.59;67.64;97278.44;5011543;27;103515;-62
2023/08/03 03:20:16;;;;;;;6.30;1.52;;;;;;;21.89;70.54;97266.97;4990186;28;102694;-62
2023/08/03 03:22:45;;;;;;;4.40;1.90;;;;;;;22.12;69.34;97261.81;5010418;27;103028;-62
2023/08/03 03:25:14;;;;;;;4.77;1.70;;;;;;;21.44;71.92;97270.69;4993514;28;103697;-62
2023/08/03 03:27:42;;;;;;;5.67;1.70;;;;;;;21.77;70.94;97268.63;4997048;28;104125;-62
2023/08/03 03:30:13;;;;;;;4.50;1.83;;;;;;;21.40;72.22;97270.25;5014868;27;102916;-63
2023/08/03 03:32:43;;;;;;;3.40;1.40;;;;;;;21.72;71.31;97269.31;4998678;28;102791;-63
2023/08/03 03:35:11;;;;;;;5.70;1.88;;;;;;;21.69;70.81;97266.22;4996454;28;104303;-63
2023/08/03 03:37:40;;;;;;;7.15;2.13;;;;;;;21.81;70.91;97267.19;5010973;27;102963;-62
2023/08/03 03:40:12;;;;;;;5.65;2.00;;;;;;;21.68;70.66;97264.56;4991246;28;102815;-62
2023/08/03 03:42:44;;;;;;;6.07;1.80;;;;;;;21.43;71.74;97252.91;5012987;27;103511;-62
2023/08/03 03:45:13;;;;;;;5.85;1.73;;;;;;;21.61;70.77;97271.84;4995185;28;104197;-61
2023/08/03 03:47:44;;;;;;;5.13;1.70;;;;;;;21.58;70.53;97272.25;5012959;27;104251;-62
2023/08/03 03:50:13;;;;;;;5.30;1.65;;;;;;;21.49;70.87;97274.38;4994882;28;102691;-61
2023/08/03 03:52:42;;;;;;;4.63;1.92;;;;;;;21.32;71.64;97263.28;4999648;28;102678;-61
2023/08/03 03:55:16;;;;;;;5.35;1.65;;;;;;;21.38;70.75;97265.13;5009625;27;103290;-60
2023/08/03 03:57:49;;;;;;;5.35;1.75;;;;;;;21.18;71.20;97285.00;5011224;27;103212;-61
2023/08/03 04:00:18;;;;;;;6.93;1.77;;;;;;;21.41;70.90;97284.53;4994715;28;102911;-62
2023/08/03 04:02:52;;;;;;;5.13;1.88;;;;;;;21.81;69.09;97291.38;4994603;28;102792;-62
2023/08/03 04:05:25;;;;;;;5.97;1.58;;;;;;;21.50;69.77;97283.25;4994798;28;103265;-61
2023/08/03 04:07:55;;;;;;;4.35;1.55;;;;;;;21.35;69.94;97289.72;4997973;28;103090;-62
2023/08/03 04:10:23;;;;;;;3.25;1.40;;;;;;;21.64;69.40;97287.53;4998606;28;102900;-63
2023/08/03 04:12:52;;;;;;;3.90;1.58;;;;;;;22.05;68.13;97293.31;4996260;28;104634;-62
2023/08/03 04:15:25;;;;;;;5.60;1.60;;;;;;;21.70;68.64;97305.47;4990781;28;104301;-62
2023/08/03 04:17:56;;;;;;;5.53;1.60;;;;;;;21.78;68.75;97303.34;4991312;28;103235;-62
2023/08/03 04:20:33;;;;;;;5.63;1.73;;;;;;;21.33;70.15;97325.88;4996015;28;102944;-62
2023/08/03 04:23:02;;;;;;;8.10;1.77;;;;;;;21.48;69.46;97320.22;4993658;28;102943;-62
2023/08/03 04:25:32;;;;;;;4.67;1.30;;;;;;;21.82;68.76;97325.25;4989708;28;103319;-62
2023/08/03 04:28:23;;;;;;;6.22;1.75;;;;;;;21.86;68.21;97342.63;5008645;27;103082;-62
2023/08/03 04:30:52;;;;;;;3.45;1.40;;;;;;;21.83;68.80;97337.69;4995018;28;102897;-62
2023/08/03 04:33:23;;;;;;;4.85;1.67;;;;;;;22.02;67.50;97342.16;4994258;28;102767;-62
2023/08/03 04:35:56;;;;;;;3.67;1.45;;;;;;;21.39;69.45;97360.75;5001909;27;104217;-62
2023/08/03 04:38:31;;;;;;;3.17;1.27;;;;;;;21.33;69.29;97353.53;4997917;28;104157;-62
2023/08/03 04:41:03;;;;;;;3.93;1.40;;;;;;;21.30;68.86;97370.09;4994466;28;102843;-62
2023/08/03 04:43:36;;;;;;;4.40;1.30;;;;;;;21.59;67.58;97354.50;4988881;28;104365;-60
2023/08/03 04:46:07;;;;;;;3.65;1.20;;;;;;;21.62;67.79;97367.50;4995267;28;104109;-61
2023/08/03 04:48:39;;;;;;;5.88;1.60;;;;;;;21.47;67.80;97381.22;5010349;27;103304;-61
2023/08/03 04:51:10;;;;;;;2.47;1.20;;;;;;;22.03;65.98;97376.06;4997324;28;102666;-62
2023/08/03 04:53:41;;;;;;;2.83;1.00;;;;;;;22.11;65.20;97381.19;5010651;27;103798;-63
2023/08/03 04:56:11;;;;;;;3.10;1.10;;;;;;;21.61;66.25;97398.13;4999198;28;103263;-63
2023/08/03 04:58:41;;;;;;;2.35;0.95;;;;;;;22.16;64.82;97397.50;4992509;28;103500;-63
2023/08/03 05:01:15;;;;;;;3.40;1.30;;;;;;;22.02;64.75;97390.53;5000014;28;102908;-62
2023/08/03 05:03:49;;;;;;;3.75;1.15;;;;;;;22.42;64.41;97399.22;4997653;28;102996;-62
2023/08/03 05:06:19;;;;;;;3.13;1.03;;;;;;;22.58;63.19;97396.00;4994241;28;103313;-62
2023/08/03 05:08:51;;;;;;;4.40;1.13;;;;;;;22.51;63.98;97400.63;5002292;27;105073;-64
2023/08/03 05:11:25;;;;;;;3.20;1.00;;;;;;;22.63;63.09;97408.81;4987187;28;102848;-62
2023/08/03 05:13:59;;;;;;;2.40;0.88;;;;;;;22.57;63.39;97401.63;4988358;28;103329;-62
2023/08/03 05:16:34;;;;;;;4.35;1.13;;;;;;;22.33;63.96;97409.44;5000765;28;103110;-62
2023/08/03 05:19:10;;;;;;;2.73;1.10;;;;;;;22.46;63.51;97425.47;4989813;28;103231;-62
2023/08/03 05:21:46;;;;;;;3.90;1.23;;;;;;;22.00;65.13;97424.91;4996075;28;102687;-62
2023/08/03 05:24:24;;;;;;;2.22;0.98;;;;;;;21.75;66.20;97432.00;4995009;28;104211;-62
2023/08/03 05:26:58;;;;;;;2.78;0.93;;;;;;;21.79;66.46;97425.97;4990500;28;103089;-62
2023/08/03 05:29:35;;;;;;;3.05;1.10;;;;;;;22.27;65.03;97434.50;4994178;28;104478;-62
2023/08/03 05:32:11;;;;;;;3.77;1.03;;;;;;;21.77;66.89;97437.97;4987910;28;103069;-61
2023/08/03 05:34:48;;;;;;;1.83;0.77;;;;;;;22.45;65.02;97440.00;4994683;28;102763;-61
2023/08/03 05:37:22;;;;;;;1.88;0.90;;;;;;;22.38;65.16;97447.25;4990606;28;103039;-61
2023/08/03 05:39:58;;;;;;;4.35;0.90;;;;;;;22.06;66.29;97447.44;4986175;28;103036;-62
2023/08/03 05:42:40;;;;;;;2.47;0.70;;;;;;;21.85;67.62;97453.88;4992380;28;102740;-61
2023/08/03 05:45:36;;;;;;;2.83;0.90;;;;;;;22.17;67.86;97452.97;4990118;28;102620;-61
2023/08/03 05:48:16;;;;;;;1.90;0.80;;;;;;;21.83;69.58;97456.78;4994127;28;103305;-61
2023/08/03 05:50:54;;;;;;;2.78;1.00;;;;;;;22.16;68.76;97466.59;4995402;28;103239;-61
2023/08/03 05:53:31;;;;;;;1.43;0.90;;;;;;;22.09;68.80;97461.25;4988737;28;102941;-61
2023/08/03 05:56:12;;;;;;;3.63;1.07;;;;;;;21.99;70.17;97454.69;4989348;28;103527;-61
2023/08/03 05:58:48;;;;;;;1.90;0.80;;;;;;;21.97;70.15;97456.75;4986430;28;103258;-61
2023/08/03 06:01:23;;;;;;;2.13;0.63;;;;;;;21.95;69.99;97452.41;4993320;28;103487;-61
2023/08/03 06:03:58;;;;;;;1.60;0.70;;;;;;;22.23;69.35;97462.03;4983593;28;103191;-61
2023/08/03 06:06:35;;;;;;;1.73;0.75;;;;;;;22.37;69.26;97459.06;4992430;28;102941;-61
2023/08/03 06:09:14;;;;;;;4.18;1.00;;;;;;;21.85;69.60;97464.63;4991624;28;103130;-61
2023/08/03 06:11:49;;;;;;;1.80;0.70;;;;;;;22.31;68.51;97459.09;4991221;28;103346;-61
2023/08/03 06:14:24;;;;;;;2.80;0.70;;;;;;;22.17;68.80;97463.72;4991688;28;103023;-61
2023/08/03 06:17:00;;;;;;;2.33;0.98;;;;;;;22.55;67.53;97477.19;4991767;28;102743;-61
2023/08/03 06:19:35;;;;;;;1.97;0.60;;;;;;;22.00;69.29;97476.00;4990457;28;103182;-61
2023/08/03 06:22:19;;;;;;;2.58;0.90;;;;;;;22.36;68.71;97488.88;4986531;28;103046;-61
2023/08/03 06:24:53;;;;;;;2.10;0.80;;;;;;;22.28;68.94;97476.50;4991200;28;102826;-61
2023/08/03 06:27:29;;;;;;;1.40;0.57;;;;;;;22.15;68.52;97489.97;4989188;28;102714;-62
2023/08/03 06:30:07;;;;;;;1.30;0.77;;;;;;;22.71;66.96;97484.78;4990239;28;103093;-62
2023/08/03 06:32:44;;;;;;;2.30;0.80;;;;;;;22.72;65.40;97489.13;4993095;28;102967;-62
2023/08/03 06:35:50;;;;;;;3.10;0.90;;;;;;;22.66;65.70;97489.16;4996748;28;102666;-58
2023/08/03 06:38:39;;;;;;;2.30;0.90;;;;;;;22.64;66.60;97486.69;4998193;28;102788;-59
2023/08/03 06:41:22;;;;;;;2.20;0.90;;;;;;;22.80;65.63;97490.72;5001844;28;104219;-60
2023/08/03 06:44:01;;;;;;;2.53;0.80;;;;;;;23.23;64.38;97480.91;5003486;28;103048;-61
2023/08/03 06:46:41;;;;;;;2.53;1.15;;;;;;;22.57;64.91;97487.75;4991943;28;102804;-60
2023/08/03 06:49:20;;;;;;;2.37;1.03;;;;;;;22.95;63.71;97485.88;4997655;28;102909;-60
2023/08/03 06:52:01;;;;;;;3.05;0.90;;;;;;;23.17;62.21;97491.72;4998983;28;103026;-60
2023/08/03 06:54:39;;;;;;;3.03;1.00;;;;;;;23.10;61.66;97487.19;5000046;28;103317;-61
2023/08/03 06:57:18;;;;;;;2.33;0.90;;;;;;;23.40;60.72;97498.19;4996351;28;102771;-60
2023/08/03 07:00:03;;;;;;;2.58;1.10;;;;;;;23.14;59.64;97489.47;5003441;28;103006;-61
2023/08/03 07:02:52;;;;;;;4.10;0.97;;;;;;;22.77;59.25;97501.94;5002586;28;103267;-62
2023/08/03 07:05:39;;;;;;;3.50;1.00;;;;;;;23.39;58.16;97498.41;4992704;28;103123;-60
2023/08/03 07:08:20;;;;;;;3.08;0.95;;;;;;;23.37;57.60;97508.56;5004085;28;102673;-60
2023/08/03 07:11:01;;;;;;;3.25;0.93;;;;;;;23.71;56.83;97499.16;4997182;28;102719;-60
2023/08/03 07:13:43;;;;;;;3.43;1.10;;;;;;;23.40;56.78;97495.50;5004211;28;103089;-61
2023/08/03 07:16:23;;;;;;;2.37;1.00;;;;;;;23.64;57.09;97505.44;4993338;28;103110;-61
2023/08/03 07:19:02;;;;;;;3.13;1.02;;;;;;;23.77;55.57;97503.66;4998826;28;102582;-62
2023/08/03 07:21:41;;;;;;;3.03;1.00;;;;;;;24.43;55.63;97515.41;4998521;28;102691;-61
2023/08/03 07:24:23;;;;;;;2.10;1.03;;;;;;;24.42;55.50;97516.44;5000837;28;103034;-62
2023/08/03 07:27:09;;;;;;;2.57;1.00;;;;;;;23.84;55.40;97525.97;4997562;28;103123;-61
2023/08/03 07:29:45;;;;;;;3.20;0.90;;;;;;;23.69;55.22;97539.00;5007267;28;102826;-60
2023/08/03 07:32:19;;;;;;;3.05;1.00;;;;;;;24.20;54.44;97542.22;5002836;28;103093;-61
2023/08/03 07:34:50;;;;;;;3.58;1.00;;;;;;;23.61;55.62;97524.75;4989281;28;103164;-60
2023/08/03 07:37:20;;;;;;;3.08;0.95;;;;;;;24.12;55.85;97545.22;5004189;28;102988;-60
2023/08/03 07:39:49;;;;;;;4.43;0.97;;;;;;;23.36;55.56;97536.53;4998499;28;103311;-60
2023/08/03 07:42:24;;;;;;;2.50;0.80;;;;;;;24.24;54.29;97540.75;4992097;28;102950;-61
2023/08/03 07:45:05;;;;;;;3.25;0.95;;;;;;;24.19;53.68;97536.03;4988785;28;104150;-60
2023/08/03 07:47:37;;;;;;;3.33;0.85;;;;;;;24.40;53.42;97545.53;5001863;28;103000;-61
2023/08/03 07:50:09;;;;;;;3.33;0.97;;;;;;;23.81;54.81;97554.22;4998897;28;102710;-61
2023/08/03 07:52:42;;;;;;;3.05;0.85;;;;;;;24.21;53.85;97543.88;4995806;28;102688;-62
2023/08/03 07:55:12;;;;;;;2.03;0.90;;;;;;;24.43;53.84;97557.75;5015218;27;105125;-62
2023/08/03 07:57:45;;;;;;;1.58;0.80;;;;;;;23.79;54.83;97547.41;5000068;28;103038;-62
2023/08/03 08:00:25;;;;;;;2.88;0.93;;;;;;;24.05;55.33;97547.16;4996488;28;102952;-63
2023/08/03 08:02:58;;;;;;;2.08;0.85;;;;;;;24.04;54.87;97540.09;5003742;28;104553;-63
2023/08/03 08:05:31;;;;;;;2.72;0.80;;;;;;;24.32;54.68;97548.53;4989928;28;103690;-63
2023/08/03 08:08:04;;;;;;;2.70;0.90;;;;;;;23.85;55.71;97560.00;5000434;28;103115;-63
2023/08/03 08:10:41;;;;;;;2.65;1.02;;;;;;;24.56;54.25;97557.63;5004533;28;102669;-62
2023/08/03 08:13:22;;;;;;;2.78;0.80;;;;;;;25.52;52.81;97557.53;5010477;27;102749;-63
2023/08/03 08:16:01;;;;;;;3.47;1.03;;;;;;;24.08;54.29;97554.81;5003027;28;103786;-63
2023/08/03 08:18:44;;;;;;;1.70;0.95;;;;;;;24.12;55.13;97556.03;5000945;28;103117;-62
2023/08/03 08:21:35;;;;;;;3.22;1.00;;;;;;;24.82;53.85;97561.84;4998683;28;102538;-63
2023/08/03 08:27:31;;;;;;;3.58;1.00;;;;;;;26.52;51.89;97561.78;4988774;28;103510;-63
2023/08/03 08:30:27;;;;;;;3.85;0.82;;;;;;;26.09;51.76;97555.91;5001279;28;102910;-61
2023/08/03 08:33:47;;;;;;;1.42;0.80;;;;;;;26.69;51.19;97564.56;4995823;28;103103;-63
2023/08/03 08:36:33;;;;;;;2.40;0.88;;;;;;;26.50;51.66;97566.59;5007076;28;102688;-61
2023/08/03 08:39:15;;;;;;;2.35;0.95;;;;;;;26.18;51.20;97557.25;4998713;28;103284;-63
2023/08/03 08:42:23;;;;;;;2.75;0.95;;;;;;;26.77;50.47;97561.47;5002584;28;102986;-63
2023/08/03 08:45:38;;;;;;;4.38;1.08;;;;;;;26.95;49.41;97570.25;5007645;28;102591;-63
2023/08/03 08:48:30;;;;;;;2.38;0.90;;;;;;;26.52;50.92;97569.91;5006014;28;102896;-62
2023/08/03 08:51:15;;;;;;;1.70;0.88;;;;;;;26.50;50.09;97558.47;5000780;28;103060;-63
2023/08/03 08:53:56;;;;;;;2.35;0.70;;;;;;;27.21;49.89;97557.19;5005122;28;103232;-63
2023/08/03 08:57:01;;;;;;;2.83;0.80;;;;;;;27.31;48.25;97569.03;5004132;28;102642;-63
2023/08/03 09:04:09;;;;;;;2.95;0.80;;;;;;;28.11;47.64;97572.31;5001703;28;104482;-63
2023/08/03 09:07:00;;;;;;;2.40;0.90;;;;;;;26.27;49.22;97577.47;5005721;28;103992;-62
2023/08/03 09:09:39;;;;;;;2.35;0.65;;;;;;;26.69;48.93;97587.06;4997679;28;103614;-62
2023/08/03 09:12:27;;;;;;;3.40;0.80;;;;;;;26.36;49.47;97586.88;5000613;28;103925;-63
2023/08/03 09:15:02;;;;;;;3.13;0.90;;;;;;;27.41;48.26;97576.56;4993008;28;103158;-62
2023/08/03 09:18:01;;;;;;;2.58;0.88;;;;;;;27.46;49.42;97582.91;5002264;28;103059;-62
2023/08/03 09:20:47;;;;;;;2.03;0.77;;;;;;;26.64;49.54;97584.22;4997697;28;103143;-62
2023/08/03 09:23:37;;;;;;;2.28;0.95;;;;;;;27.08;48.95;97595.44;5001688;28;102697;-62
2023/08/03 09:26:31;;;;;;;3.38;0.80;;;;;;;26.79;49.98;97598.13;4992394;28;102974;-61
2023/08/03 09:29:19;;;;;;;2.20;0.50;;;;;;;27.13;48.51;97588.22;5002498;28;102941;-62
2023/08/03 09:32:17;;;;;;;3.67;1.00;;;;;;;27.33;49.09;97595.91;5002661;28;102710;-61
2023/08/03 09:35:21;;;;;;;1.97;0.80;;;;;;;27.15;48.92;97606.94;5003512;28;102767;-62
2023/08/03 09:38:09;;;;;;;1.90;0.80;;;;;;;27.22;48.72;97607.63;4996920;28;103371;-65
2023/08/03 09:40:51;;;;;;;1.50;0.60;;;;;;;27.17;48.63;97615.69;4997667;28;103099;-61
2023/08/03 09:43:31;;;;;;;1.42;0.70;;;;;;;26.99;48.84;97612.09;5015582;27;102751;-61
2023/08/03 09:46:20;;;;;;;1.42;0.57;;;;;;;26.62;49.23;97613.44;4996302;28;102861;-62
2023/08/03 09:49:09;;;;;;;0.85;0.60;;;;;;;26.93;49.08;97615.75;4995322;28;103399;-62
2023/08/03 09:52:01;;;;;;;1.20;0.63;;;;;;;27.30;48.97;97618.91;5001622;28;103080;-61
2023/08/03 09:55:10;;;;;;;0.98;0.60;;;;;;;27.53;48.93;97621.56;4988310;28;102651;-62
2023/08/03 09:58:05;;;;;;;1.58;0.50;;;;;;;27.66;48.16;97614.97;4997950;28;102936;-62
2023/08/03 10:01:00;;;;;;;2.00;0.70;;;;;;;27.81;48.28;97620.69;5000119;28;103073;-61
2023/08/03 10:03:58;;;;;;;1.50;0.60;;;;;;;27.34;48.64;97632.81;4998761;28;103471;-61
2023/08/03 10:06:44;;;;;;;1.55;0.60;;;;;;;27.05;49.39;97627.41;4990876;28;103084;-60
2023/08/03 10:09:28;;;;;;;1.83;0.77;;;;;;;27.18;49.10;97633.56;4999406;28;102678;-61
2023/08/03 10:12:16;;;;;;;2.15;0.75;;;;;;;26.90;49.43;97635.19;4997754;28;103130;-62
2023/08/03 10:15:03;;;;;;;1.80;0.60;;;;;;;26.64;50.27;97641.09;5012363;27;103212;-62
2023/08/03 10:17:51;;;;;;;2.17;0.65;;;;;;;27.38;48.76;97639.38;5015161;28;102801;-62
2023/08/03 10:20:37;;;;;;;1.60;0.60;;;;;;;26.40;50.74;97647.63;5002046;28;102862;-62
2023/08/03 10:23:25;;;;;;;2.25;0.80;;;;;;;26.50;50.21;97637.00;4995968;28;103073;-61
2023/08/03 10:26:31;;;;;;;1.48;0.68;;;;;;;26.41;50.23;97638.44;5003482;28;103067;-62
2023/08/03 10:29:59;;;;;;;2.90;0.90;;;;;;;26.40;50.44;97644.91;5005165;28;102778;-62
2023/08/03 10:32:45;;;;;;;1.97;0.80;;;;;;;26.75;48.99;97640.25;5018162;27;102941;-63
2023/08/03 10:35:52;;;;;;;2.10;0.80;;;;;;;26.39;49.58;97640.53;5000586;28;103205;-62
2023/08/03 10:38:34;;;;;;;1.90;0.57;;;;;;;26.14;50.34;97637.25;4994915;28;103269;-62
2023/08/03 10:41:38;;;;;;;1.48;0.75;;;;;;;26.02;50.53;97644.53;5001995;28;102781;-62
2023/08/03 10:44:38;;;;;;;1.52;0.70;;;;;;;25.78;50.65;97660.72;4995661;28;106263;-63
2023/08/03 10:47:32;;;;;;;2.53;0.80;;;;;;;26.56;49.66;97660.44;5003406;28;103052;-63
2023/08/03 10:50:13;;;;;;;2.33;0.70;;;;;;;26.46;49.65;97662.91;4999203;28;103264;-63
2023/08/03 10:52:49;;;;;;;2.35;0.77;;;;;;;26.55;50.00;97666.94;4999145;28;102944;-62
2023/08/03 10:55:27;;;;;;;1.63;0.57;;;;;;;26.17;51.07;97674.66;4996526;28;104362;-62
2023/08/03 10:58:07;;;;;;;1.30;0.57;;;;;;;26.00;50.36;97666.38;5002583;28;103124;-63
2023/08/03 11:00:57;;;;;;;1.80;0.90;;;;;;;26.25;50.72;97663.50;5001785;28;103084;-62
2023/08/03 11:03:44;;;;;;;1.35;0.50;;;;;;;26.45;49.81;97666.69;4998266;28;102921;-62
2023/08/03 11:06:22;;;;;;;2.45;0.65;;;;;;;26.29;50.29;97667.41;4998618;28;104404;-62
2023/08/03 11:09:04;;;;;;;1.90;0.63;;;;;;;26.67;49.50;97670.44;5002081;28;103845;-63
2023/08/03 11:11:57;;;;;;;1.50;0.70;;;;;;;27.00;49.99;97669.81;5002848;28;102938;-62
2023/08/03 11:14:47;;;;;;;1.10;0.60;;;;;;;27.93;47.80;97656.69;5002869;28;103634;-62
2023/08/03 11:17:49;;;;;;;1.52;0.63;;;;;;;27.18;48.20;97677.78;5004565;28;103255;-62
2023/08/03 11:20:32;;;;;;;1.67;0.70;;;;;;;27.83;47.78;97670.09;5004543;28;103213;-61
2023/08/03 11:23:17;;;;;;;1.63;0.52;;;;;;;27.28;48.61;97678.00;5004204;28;103109;-62
2023/08/03 11:25:55;;;;;;;1.67;0.60;;;;;;;27.10;48.20;97680.03;4994730;28;102912;-63
2023/08/03 11:28:34;;;;;;;1.95;0.60;;;;;;;27.13;48.69;97674.13;5001540;28;102771;-63
2023/08/03 11:31:30;;;;;;;1.60;0.73;;;;;;;26.77;48.88;97678.78;4999195;28;103146;-63
2023/08/03 11:34:24;;;;;;;2.72;0.70;;;;;;;27.31;48.96;97671.25;5004626;28;103014;-62
2023/08/03 11:37:11;;;;;;;1.75;0.70;;;;;;;27.82;48.02;97664.91;4997606;28;102820;-62
2023/08/03 11:39:58;;;;;;;3.72;0.80;;;;;;;27.54;47.87;97660.31;5005682;28;103108;-63
2023/08/03 11:42:56;;;;;;;1.83;0.57;;;;;;;27.77;47.36;97673.78;5018174;27;103023;-62
2023/08/03 11:45:44;;;;;;;0.95;0.50;;;;;;;27.60;46.83;97675.63;4998387;28;103662;-62
2023/08/03 11:51:56;;;;;;;;;;;;;;;;;;;;;
2023/08/03 11:54:48;;;;;;;1.45;0.50;;;;;;;28.34;46.62;97646.50;5005001;28;103223;-62
2023/08/03 12:00:35;;;;;;;1.70;0.60;;;;;;;28.13;46.17;97662.47;5000033;28;102554;-63
2023/08/03 12:03:34;;;;;;;1.43;0.50;;;;;;;27.97;47.36;97659.72;4999857;28;102713;-63
2023/08/03 12:06:44;;;;;;;1.67;0.43;;;;;;;27.92;46.75;97674.06;4998456;28;103215;-62
2023/08/03 12:10:13;;;;;;;1.23;0.50;;;;;;;28.41;46.21;97672.41;5003916;28;105494;-61
2023/08/03 12:12:54;;;;;;;1.23;0.50;;;;;;;27.84;46.99;97674.47;4990934;28;102732;-63
2023/08/03 12:15:50;;;;;;;0.87;0.43;;;;;;;27.92;46.46;97673.22;5015434;27;104186;-62
2023/08/03 12:22:34;;;;;;;1.02;0.50;;;;;;;27.79;46.57;97685.19;4996619;28;103071;-63
2023/08/03 12:25:27;;;;;;;0.95;0.40;;;;;;;27.61;46.47;97696.28;4995674;28;102915;-62
2023/08/03 12:28:21;;;;;;;1.27;0.50;;;;;;;26.94;49.70;97690.56;4995983;28;104052;-63
2023/08/03 12:31:29;;;;;;;1.33;0.52;;;;;;;27.92;47.99;97694.94;5008928;27;104153;-63
2023/08/03 12:42:34;;;;;;;1.90;0.70;;;;;;;29.35;45.93;97680.53;4943863;28;102850;-64
2023/08/03 12:45:27;;;;;;;2.97;0.60;;;;;;;29.88;44.19;97694.19;4973317;28;103416;-62